Time;durP1;ratioP1;P1;durP2;ratioP2;P2;SDS_P1;SDS_P2;PMS_P1;PMS_P2;Temp;Humidity;BMP_temperature;BMP_pressure;BME280_temperature;BME280_humidity;BME280_pressure;Samples;Min_cycle;Max_cycle;Signal;HPM_P1;HPM_P2
2023/06/22 00:02:13;;;;;;;8.90;3.15;;;18.60;99.90;;;;;;7340653;32;20122;-57
2023/06/22 00:06:15;;;;;;;4.37;3.10;;;18.60;99.90;;;;;;7344366;32;20525;-56
2023/06/22 00:10:17;;;;;;;3.97;3.10;;;18.60;99.90;;;;;;7344114;32;20600;-56
2023/06/22 00:14:19;;;;;;;4.30;2.85;;;18.60;99.90;;;;;;7341399;32;20544;-55
2023/06/22 00:18:20;;;;;;;6.03;3.28;;;18.70;99.90;;;;;;7339943;32;20935;-56
2023/06/22 00:22:28;;;;;;;7.65;3.15;;;18.60;99.90;;;;;;7333949;32;20107;-54
2023/06/22 00:26:30;;;;;;;4.62;3.00;;;18.60;99.90;;;;;;7341559;32;20281;-56
2023/06/22 00:30:33;;;;;;;5.97;3.08;;;18.60;99.90;;;;;;7343854;32;20100;-56
2023/06/22 00:34:34;;;;;;;2.83;2.55;;;18.60;99.90;;;;;;7344994;32;20219;-56
2023/06/22 00:38:39;;;;;;;5.87;3.03;;;18.60;99.90;;;;;;7341407;32;20217;-56
2023/06/22 00:42:41;;;;;;;4.53;3.17;;;18.70;99.90;;;;;;7348385;32;20138;-56
2023/06/22 00:46:43;;;;;;;6.60;3.50;;;18.80;99.90;;;;;;7345381;32;20107;-56
2023/06/22 00:50:46;;;;;;;4.30;3.17;;;18.90;99.90;;;;;;7345641;32;20254;-56
2023/06/22 00:54:48;;;;;;;4.87;3.40;;;19.00;99.90;;;;;;7341137;32;20519;-56
2023/06/22 00:58:52;;;;;;;5.70;3.50;;;19.00;99.90;;;;;;7344628;32;20102;-56
2023/06/22 01:02:54;;;;;;;5.75;3.08;;;19.20;99.90;;;;;;7344374;32;20150;-55
2023/06/22 01:07:30;;;;;;;6.62;3.40;;;19.20;99.90;;;;;;7345219;32;20221;-56
2023/06/22 01:11:41;;;;;;;4.40;2.90;;;19.20;99.90;;;;;;7342929;32;20459;-55
2023/06/22 01:15:53;;;;;;;4.00;3.37;;;19.20;99.90;;;;;;7338347;32;20153;-55
2023/06/22 01:19:55;;;;;;;4.57;3.30;;;19.30;99.90;;;;;;7343621;32;20116;-56
2023/06/22 01:24:10;;;;;;;9.30;4.47;;;19.40;99.90;;;;;;7341057;32;20184;-55
2023/06/22 01:28:24;;;;;;;5.90;3.67;;;19.40;99.90;;;;;;7342658;32;20273;-55
2023/06/22 01:32:35;;;;;;;4.50;2.72;;;19.50;99.90;;;;;;7340809;32;20159;-56
2023/06/22 01:36:38;;;;;;;5.03;3.62;;;19.50;99.90;;;;;;7344456;32;20351;-56
2023/06/22 01:40:40;;;;;;;5.40;3.17;;;19.50;99.90;;;;;;7351638;32;20659;-54
2023/06/22 01:44:43;;;;;;;4.47;2.95;;;19.50;99.90;;;;;;7343815;32;20119;-55
2023/06/22 01:48:46;;;;;;;5.82;3.22;;;19.40;99.90;;;;;;7345141;32;20243;-56
2023/06/22 01:52:48;;;;;;;6.93;3.75;;;19.30;99.90;;;;;;7348731;32;20138;-55
2023/06/22 01:56:50;;;;;;;6.65;3.60;;;19.20;99.90;;;;;;7342416;32;20333;-55
2023/06/22 02:01:12;;;;;;;7.72;4.20;;;19.10;99.90;;;;;;7343106;32;20186;-55
2023/06/22 02:05:17;;;;;;;4.80;3.62;;;19.10;99.90;;;;;;7345136;32;20142;-56
2023/06/22 02:09:22;;;;;;;5.85;3.45;;;19.10;99.90;;;;;;7345917;32;20274;-55
2023/06/22 02:13:25;;;;;;;5.07;3.90;;;19.00;99.90;;;;;;7342439;32;20198;-56
2023/06/22 02:17:27;;;;;;;7.10;4.15;;;19.00;99.90;;;;;;7344422;32;20679;-55
2023/06/22 02:21:30;;;;;;;5.45;3.95;;;19.00;99.90;;;;;;7342256;32;20376;-55
2023/06/22 02:25:33;;;;;;;6.87;4.82;;;19.00;99.90;;;;;;7345553;32;20111;-55
2023/06/22 02:29:35;;;;;;;8.85;6.20;;;19.10;99.90;;;;;;7343476;32;20127;-55
2023/06/22 02:33:37;;;;;;;9.00;6.80;;;19.00;99.90;;;;;;7345421;32;20107;-56
2023/06/22 02:37:41;;;;;;;9.65;6.72;;;19.00;99.90;;;;;;7345872;32;20663;-56
2023/06/22 02:41:43;;;;;;;9.73;6.50;;;19.00;99.90;;;;;;7340456;32;20146;-56
2023/06/22 02:45:44;;;;;;;8.70;6.18;;;19.10;99.90;;;;;;7340143;32;20253;-57
2023/06/22 02:49:46;;;;;;;8.88;5.87;;;19.10;99.90;;;;;;7341313;32;20186;-56
2023/06/22 02:53:48;;;;;;;8.55;6.70;;;19.00;99.90;;;;;;7338772;32;20222;-55
2023/06/22 02:57:52;;;;;;;6.82;5.90;;;18.90;99.90;;;;;;7339235;32;20226;-55
2023/06/22 03:01:54;;;;;;;11.38;6.95;;;18.90;99.90;;;;;;7338159;32;20187;-57
2023/06/22 03:05:55;;;;;;;9.18;7.15;;;18.90;99.90;;;;;;7341100;32;20831;-56
2023/06/22 03:09:57;;;;;;;10.73;7.10;;;18.90;99.90;;;;;;7339659;32;20179;-56
2023/06/22 03:14:00;;;;;;;7.05;5.78;;;18.90;99.90;;;;;;7349064;32;20214;-56
2023/06/22 03:18:02;;;;;;;7.85;6.15;;;18.90;99.90;;;;;;7340048;32;20269;-56
2023/06/22 03:22:04;;;;;;;7.47;6.25;;;18.80;99.90;;;;;;7343372;32;20222;-56
2023/06/22 03:26:06;;;;;;;7.43;5.18;;;18.80;99.90;;;;;;7345763;32;20719;-55
2023/06/22 03:30:09;;;;;;;8.73;4.75;;;18.70;99.90;;;;;;7341718;32;20470;-56
2023/06/22 03:34:11;;;;;;;6.20;5.20;;;18.60;99.90;;;;;;7342816;32;21029;-56
2023/06/22 03:38:13;;;;;;;6.40;4.35;;;18.60;99.90;;;;;;7336101;32;20223;-56
2023/06/22 03:42:14;;;;;;;10.00;5.90;;;18.70;99.90;;;;;;7346143;32;20916;-56
2023/06/22 03:46:16;;;;;;;8.27;5.40;;;18.60;99.90;;;;;;7343406;32;20127;-55
2023/06/22 03:50:20;;;;;;;8.50;5.43;;;18.60;99.90;;;;;;7339482;32;20134;-56
2023/06/22 03:54:21;;;;;;;10.57;8.18;;;18.60;99.90;;;;;;7342648;32;20667;-55
2023/06/22 03:58:23;;;;;;;10.32;8.40;;;18.70;99.90;;;;;;7340047;32;20119;-56
2023/06/22 04:02:26;;;;;;;14.87;9.68;;;18.80;99.90;;;;;;7340633;32;20724;-55
2023/06/22 04:06:27;;;;;;;13.25;9.63;;;18.90;99.90;;;;;;7343751;32;20595;-55
2023/06/22 04:10:29;;;;;;;12.90;10.27;;;19.00;99.90;;;;;;7340702;32;20972;-56
2023/06/22 04:14:31;;;;;;;13.23;10.93;;;19.10;99.90;;;;;;7343794;32;20233;-55
2023/06/22 04:18:33;;;;;;;14.38;10.43;;;19.10;99.90;;;;;;7344949;32;20516;-55
2023/06/22 04:22:34;;;;;;;11.88;10.65;;;19.30;99.90;;;;;;7348635;32;20110;-56
2023/06/22 04:26:37;;;;;;;12.68;10.68;;;19.30;99.90;;;;;;7347770;32;20135;-55
2023/06/22 04:30:46;;;;;;;13.77;11.63;;;19.40;99.90;;;;;;7344078;32;20194;-56
2023/06/22 04:34:47;;;;;;;12.88;11.20;;;19.40;99.90;;;;;;7342914;32;20286;-56
2023/06/22 04:38:52;;;;;;;14.90;11.23;;;19.50;99.90;;;;;;7350799;32;20099;-55
2023/06/22 04:42:54;;;;;;;12.05;10.43;;;19.50;99.90;;;;;;7349299;32;20580;-57
2023/06/22 04:47:00;;;;;;;13.23;11.25;;;19.50;99.90;;;;;;7343565;32;20760;-58
2023/06/22 04:51:04;;;;;;;14.83;11.10;;;19.60;99.90;;;;;;7342477;32;20329;-57
2023/06/22 04:55:06;;;;;;;10.75;9.65;;;19.70;99.90;;;;;;7346340;32;20198;-57
2023/06/22 04:59:12;;;;;;;17.92;11.23;;;19.60;99.90;;;;;;7345007;32;20348;-56
2023/06/22 05:03:18;;;;;;;16.50;9.88;;;19.60;99.90;;;;;;7348070;32;20103;-57
2023/06/22 05:07:25;;;;;;;13.10;10.75;;;19.70;99.90;;;;;;7348734;32;20483;-57
2023/06/22 05:11:27;;;;;;;13.55;9.85;;;19.60;99.90;;;;;;7349793;32;20119;-56
2023/06/22 05:15:33;;;;;;;12.85;10.82;;;19.60;99.90;;;;;;7348560;32;20160;-57
2023/06/22 05:19:34;;;;;;;13.35;10.25;;;19.50;99.90;;;;;;7351815;32;20585;-58
2023/06/22 05:23:36;;;;;;;13.05;10.43;;;19.50;99.90;;;;;;7354196;32;20750;-56
2023/06/22 05:27:39;;;;;;;19.23;12.05;;;19.50;99.90;;;;;;7353594;32;20174;-57
2023/06/22 05:31:41;;;;;;;13.23;10.05;;;19.50;99.90;;;;;;7355758;32;20228;-58
2023/06/22 05:35:43;;;;;;;12.45;10.88;;;19.50;99.90;;;;;;7352087;32;20108;-56
2023/06/22 05:39:45;;;;;;;13.93;10.68;;;19.50;99.90;;;;;;7338587;32;20475;-58
2023/06/22 05:43:46;;;;;;;13.18;10.85;;;19.50;99.90;;;;;;7346156;32;20195;-57
2023/06/22 05:47:48;;;;;;;12.15;9.85;;;19.50;99.90;;;;;;7353523;32;20112;-57
2023/06/22 05:51:50;;;;;;;14.07;9.20;;;19.50;99.90;;;;;;7349575;32;20111;-57
2023/06/22 05:55:52;;;;;;;11.60;9.73;;;19.50;99.90;;;;;;7345445;32;20479;-56
2023/06/22 05:59:54;;;;;;;12.77;9.88;;;19.50;99.90;;;;;;7349818;32;20217;-57
2023/06/22 06:03:55;;;;;;;13.50;10.65;;;19.40;99.90;;;;;;7346185;32;20112;-55
2023/06/22 06:07:58;;;;;;;13.30;10.52;;;19.40;99.90;;;;;;7349734;32;20532;-56
2023/06/22 06:11:59;;;;;;;13.13;10.10;;;19.40;99.90;;;;;;7347927;32;20115;-56
2023/06/22 06:16:01;;;;;;;16.45;11.25;;;19.40;99.90;;;;;;7352532;32;20345;-55
2023/06/22 06:20:04;;;;;;;13.60;11.73;;;19.50;99.90;;;;;;7344277;32;20576;-58
2023/06/22 06:24:06;;;;;;;15.15;10.57;;;19.70;99.90;;;;;;7351299;32;20139;-58
2023/06/22 06:28:08;;;;;;;12.45;11.15;;;19.80;99.90;;;;;;7354185;32;21534;-58
2023/06/22 06:32:10;;;;;;;10.75;9.65;;;19.90;99.90;;;;;;7350458;32;20606;-58
2023/06/22 06:36:11;;;;;;;11.55;10.38;;;19.90;99.90;;;;;;7354050;32;20306;-58
2023/06/22 06:40:15;;;;;;;12.15;10.73;;;20.00;99.90;;;;;;7343340;32;20230;-60
2023/06/22 06:44:17;;;;;;;13.10;10.63;;;20.10;99.90;;;;;;7349896;32;20153;-58
2023/06/22 06:48:18;;;;;;;13.73;10.90;;;20.20;99.90;;;;;;7340948;32;20311;-58
2023/06/22 06:52:20;;;;;;;12.90;10.50;;;20.10;99.90;;;;;;7333253;32;20186;-58
2023/06/22 06:56:22;;;;;;;11.25;9.55;;;20.20;99.90;;;;;;7352974;32;20107;-58
2023/06/22 07:00:24;;;;;;;15.75;12.48;;;20.10;99.90;;;;;;7348089;32;20240;-58
2023/06/22 07:04:26;;;;;;;22.73;15.30;;;19.90;99.90;;;;;;7347100;32;20268;-55
2023/06/22 07:08:28;;;;;;;25.37;15.90;;;19.40;99.90;;;;;;7348175;32;20678;-55
2023/06/22 07:12:30;;;;;;;21.75;18.45;;;19.10;99.90;;;;;;7345885;32;20103;-54
2023/06/22 07:16:32;;;;;;;24.37;18.48;;;18.90;99.90;;;;;;7348853;32;20148;-55
2023/06/22 07:20:34;;;;;;;21.50;19.17;;;18.80;99.90;;;;;;7351119;32;20182;-54
2023/06/22 07:24:37;;;;;;;22.58;20.00;;;18.80;99.90;;;;;;7346655;32;20166;-55
2023/06/22 07:28:40;;;;;;;23.30;20.90;;;18.80;99.90;;;;;;7345542;32;20111;-55
2023/06/22 07:32:42;;;;;;;22.73;20.37;;;18.80;99.90;;;;;;7343630;32;20190;-55
2023/06/22 07:36:44;;;;;;;27.37;21.98;;;18.70;99.90;;;;;;7349922;32;20201;-57
2023/06/22 07:40:46;;;;;;;22.37;20.10;;;18.70;99.90;;;;;;7343639;32;20167;-55
2023/06/22 07:44:50;;;;;;;24.95;21.80;;;18.80;99.90;;;;;;7342869;32;20123;-55
2023/06/22 07:48:52;;;;;;;23.17;20.80;;;18.80;99.90;;;;;;7341544;32;21752;-55
2023/06/22 07:52:57;;;;;;;23.20;20.80;;;18.90;99.90;;;;;;7349290;32;20122;-55
2023/06/22 07:56:59;;;;;;;22.17;19.67;;;18.90;99.90;;;;;;7339817;32;20178;-55
2023/06/22 08:01:01;;;;;;;23.60;21.10;;;18.90;99.90;;;;;;7341462;32;20112;-55
2023/06/22 08:05:04;;;;;;;25.92;22.98;;;19.10;99.90;;;;;;7345098;32;20189;-55
2023/06/22 08:09:21;;;;;;;27.87;25.10;;;19.20;99.90;;;;;;7341766;32;20338;-55
2023/06/22 08:13:23;;;;;;;27.45;24.25;;;19.30;99.90;;;;;;7348642;32;20122;-55
2023/06/22 08:17:25;;;;;;;23.48;21.12;;;20.10;99.90;;;;;;7331290;32;20191;-55
2023/06/22 08:21:27;;;;;;;21.87;18.30;;;20.70;99.90;;;;;;7347595;32;20460;-55
2023/06/22 08:25:28;;;;;;;19.23;17.27;;;21.40;99.90;;;;;;7351115;32;20175;-55
2023/06/22 08:29:31;;;;;;;18.08;16.20;;;21.70;99.90;;;;;;7349938;32;20107;-56
2023/06/22 08:33:32;;;;;;;15.55;13.93;;;22.10;99.90;;;;;;7342857;32;20198;-55
2023/06/22 08:37:35;;;;;;;18.00;13.32;;;22.80;99.90;;;;;;7348771;32;20691;-55
2023/06/22 08:41:37;;;;;;;13.80;12.45;;;23.10;99.90;;;;;;7344592;32;20112;-55
2023/06/22 08:45:38;;;;;;;10.45;8.63;;;24.30;99.90;;;;;;7346412;32;20291;-62
2023/06/22 08:49:41;;;;;;;12.25;9.45;;;24.30;99.90;;;;;;7349999;32;20151;-61
2023/06/22 08:53:45;;;;;;;10.85;9.85;;;23.00;99.90;;;;;;7346147;32;20230;-56
2023/06/22 08:57:46;;;;;;;11.73;10.63;;;22.60;99.90;;;;;;7342849;32;20549;-55
2023/06/22 09:01:48;;;;;;;12.00;10.52;;;22.60;99.90;;;;;;7347615;32;20257;-63
2023/06/22 09:05:50;;;;;;;12.93;11.63;;;23.40;99.90;;;;;;7352706;32;20217;-57
2023/06/22 09:09:52;;;;;;;12.75;10.27;;;24.00;99.90;;;;;;7351086;32;20189;-57
2023/06/22 09:13:54;;;;;;;10.18;9.18;;;24.60;99.90;;;;;;7343954;32;20134;-57
2023/06/22 09:17:57;;;;;;;12.63;10.25;;;25.20;99.90;;;;;;7352087;32;20229;-57
2023/06/22 09:22:00;;;;;;;12.07;10.88;;;25.10;99.90;;;;;;7353090;32;20163;-56
2023/06/22 09:26:02;;;;;;;8.98;8.13;;;25.20;99.90;;;;;;7349478;32;20287;-56
2023/06/22 09:30:05;;;;;;;11.05;10.05;;;25.30;99.90;;;;;;7350777;32;20515;-57
2023/06/22 09:34:06;;;;;;;10.40;9.50;;;25.00;99.90;;;;;;7352934;32;20156;-56
2023/06/22 09:38:08;;;;;;;10.85;9.43;;;24.90;99.90;;;;;;7348439;32;20197;-57
2023/06/22 09:42:10;;;;;;;12.37;10.43;;;24.70;99.90;;;;;;7350865;32;20138;-57
2023/06/22 09:46:12;;;;;;;11.52;9.57;;;24.90;99.90;;;;;;7344961;32;20194;-59
2023/06/22 09:50:13;;;;;;;11.32;10.23;;;25.00;99.90;;;;;;7349668;32;20115;-57
2023/06/22 09:54:15;;;;;;;13.18;11.57;;;24.90;99.90;;;;;;7353711;32;20137;-57
2023/06/22 09:58:17;;;;;;;12.82;11.52;;;24.30;99.90;;;;;;7348555;32;20708;-58
2023/06/22 10:02:19;;;;;;;13.48;10.93;;;24.20;99.90;;;;;;7352158;32;20126;-58
2023/06/22 10:06:21;;;;;;;10.90;9.80;;;24.30;99.90;;;;;;7347857;32;20183;-58
2023/06/22 10:10:23;;;;;;;12.32;10.30;;;24.70;99.90;;;;;;7348905;32;20099;-58
2023/06/22 10:14:24;;;;;;;13.38;11.20;;;24.80;99.90;;;;;;7350507;32;20119;-58
2023/06/22 10:18:26;;;;;;;12.98;11.57;;;24.60;99.90;;;;;;7348932;32;20130;-58
2023/06/22 10:22:28;;;;;;;13.73;11.95;;;24.60;99.90;;;;;;7354229;32;20130;-58
2023/06/22 10:26:30;;;;;;;11.88;10.68;;;24.50;99.90;;;;;;7346741;32;20149;-57
2023/06/22 10:30:31;;;;;;;15.73;12.73;;;24.80;99.90;;;;;;7353585;32;20518;-57
2023/06/22 10:34:34;;;;;;;14.23;11.38;;;24.60;99.90;;;;;;7347480;32;20131;-58
2023/06/22 10:38:35;;;;;;;12.80;11.57;;;24.50;99.90;;;;;;7349686;32;20115;-57
2023/06/22 10:42:37;;;;;;;12.63;11.32;;;24.30;99.90;;;;;;7351219;32;20111;-56
2023/06/22 10:46:39;;;;;;;11.95;10.85;;;24.10;99.90;;;;;;7351223;32;20149;-57
2023/06/22 10:50:41;;;;;;;13.65;11.10;;;24.00;99.90;;;;;;7349477;32;20427;-56
2023/06/22 10:54:43;;;;;;;16.12;14.05;;;23.80;99.90;;;;;;7354646;32;20243;-58
2023/06/22 10:58:45;;;;;;;16.23;13.95;;;23.60;99.90;;;;;;7352989;32;20148;-58
2023/06/22 11:02:47;;;;;;;15.73;14.07;;;23.50;99.90;;;;;;7350109;32;20108;-56
2023/06/22 11:06:49;;;;;;;19.08;17.05;;;23.20;99.90;;;;;;7346190;32;20214;-58
2023/06/22 11:10:52;;;;;;;19.80;17.75;;;22.90;99.90;;;;;;7345321;32;20188;-57
2023/06/22 11:14:54;;;;;;;18.40;16.52;;;22.80;99.90;;;;;;7349980;32;20520;-58
2023/06/22 11:18:57;;;;;;;20.65;18.45;;;22.80;99.90;;;;;;7345688;32;20124;-56
2023/06/22 11:22:59;;;;;;;23.02;20.50;;;22.80;99.90;;;;;;7350032;32;20130;-56
2023/06/22 11:27:01;;;;;;;23.70;21.08;;;22.60;99.90;;;;;;7346714;32;20118;-57
2023/06/22 11:31:04;;;;;;;28.05;23.38;;;22.40;99.90;;;;;;7345526;32;20364;-57
2023/06/22 11:35:25;;;;;;;25.42;22.92;;;22.30;99.90;;;;;;7352735;32;20128;-57
2023/06/22 11:39:27;;;;;;;33.67;25.88;;;22.10;99.90;;;;;;7348003;32;20400;-56
2023/06/22 11:43:44;;;;;;;29.42;26.20;;;21.80;99.90;;;;;;7352246;32;20543;-57
2023/06/22 11:47:46;;;;;;;33.72;27.25;;;21.60;99.90;;;;;;7351265;32;20104;-57
2023/06/22 11:51:48;;;;;;;32.95;29.55;;;21.50;99.90;;;;;;7353388;32;20119;-56
2023/06/22 11:55:50;;;;;;;31.40;28.15;;;21.40;99.90;;;;;;7348550;32;20760;-58
2023/06/22 11:59:52;;;;;;;36.33;32.38;;;21.30;99.90;;;;;;7344683;32;20103;-58
2023/06/22 12:03:54;;;;;;;36.55;32.70;;;21.20;99.90;;;;;;7352007;32;20281;-59
2023/06/22 12:07:56;;;;;;;39.75;34.95;;;21.20;99.90;;;;;;7351008;32;20129;-58
2023/06/22 12:11:57;;;;;;;43.50;38.83;;;20.90;99.90;;;;;;7346219;32;20145;-58
2023/06/22 12:15:59;;;;;;;44.33;39.50;;;20.90;99.90;;;;;;7350542;32;20123;-59
2023/06/22 12:20:02;;;;;;;43.72;39.08;;;20.90;99.90;;;;;;7351660;32;20226;-59
2023/06/22 12:24:04;;;;;;;38.83;34.60;;;21.00;99.90;;;;;;7352049;32;20198;-60
2023/06/22 12:28:06;;;;;;;37.47;33.70;;;21.20;99.90;;;;;;7338637;32;20103;-57
2023/06/22 12:32:08;;;;;;;36.10;31.05;;;21.30;99.90;;;;;;7354081;32;20176;-57
2023/06/22 12:36:09;;;;;;;33.05;29.65;;;21.50;99.90;;;;;;7351070;32;20114;-58
2023/06/22 12:40:11;;;;;;;37.47;33.67;;;21.50;99.90;;;;;;7351949;32;20156;-58
2023/06/22 12:44:13;;;;;;;35.55;31.85;;;21.50;99.90;;;;;;7359012;32;20183;-57
2023/06/22 12:48:15;;;;;;;38.00;34.28;;;21.50;99.90;;;;;;7353692;32;20103;-57
2023/06/22 12:52:17;;;;;;;35.15;31.42;;;21.50;99.90;;;;;;7351289;32;20881;-58
2023/06/22 12:56:19;;;;;;;37.88;33.90;;;21.50;99.90;;;;;;7357099;32;20110;-58
2023/06/22 13:00:21;;;;;;;38.63;34.55;;;21.70;99.90;;;;;;7355643;32;20313;-58
2023/06/22 13:04:23;;;;;;;40.17;34.42;;;21.90;99.90;;;;;;7352617;32;20127;-58
2023/06/22 13:08:24;;;;;;;35.20;31.50;;;21.80;99.90;;;;;;7356591;32;20125;-60
2023/06/22 13:12:46;;;;;;;34.45;30.85;;;21.90;99.90;;;;;;7356739;32;20191;-57
2023/06/22 13:16:48;;;;;;;33.67;30.27;;;22.00;99.90;;;;;;7353740;32;20131;-56
2023/06/22 13:20:49;;;;;;;31.40;28.35;;;21.90;99.90;;;;;;7357724;32;20107;-56
2023/06/22 13:24:51;;;;;;;34.92;30.30;;;21.90;99.90;;;;;;7353723;32;20204;-57
2023/06/22 13:28:55;;;;;;;32.33;29.05;;;22.00;99.90;;;;;;7350902;32;20095;-58
2023/06/22 13:32:57;;;;;;;32.30;29.08;;;21.90;99.90;;;;;;7348411;32;20119;-56
2023/06/22 13:36:58;;;;;;;32.63;29.33;;;22.00;99.90;;;;;;7342913;32;20127;-56
2023/06/22 13:41:01;;;;;;;34.80;31.10;;;22.30;99.90;;;;;;7340152;32;20130;-56
2023/06/22 13:45:03;;;;;;;33.53;30.12;;;22.50;99.90;;;;;;7350343;32;20102;-56
2023/06/22 13:49:05;;;;;;;30.67;27.58;;;22.60;99.90;;;;;;7343053;32;20115;-57
2023/06/22 13:53:07;;;;;;;30.27;27.17;;;22.50;99.90;;;;;;7341486;32;20107;-56
2023/06/22 13:57:09;;;;;;;33.58;30.02;;;22.40;99.90;;;;;;7344455;32;20439;-56
2023/06/22 14:01:10;;;;;;;33.65;29.95;;;22.30;99.90;;;;;;7349099;32;20204;-56
2023/06/22 14:05:18;;;;;;;34.15;30.85;;;22.20;99.90;;;;;;7342362;32;20095;-57
2023/06/22 14:09:20;;;;;;;41.53;29.80;;;22.30;99.90;;;;;;7355982;32;20604;-56
2023/06/22 14:13:22;;;;;;;31.35;28.20;;;22.30;99.90;;;;;;7337552;32;20170;-56
2023/06/22 14:17:25;;;;;;;30.98;27.87;;;22.30;99.90;;;;;;7354443;32;20650;-56
2023/06/22 14:21:27;;;;;;;26.95;24.23;;;22.10;99.90;;;;;;7347319;32;20111;-57
2023/06/22 14:25:29;;;;;;;30.77;27.65;;;22.10;99.90;;;;;;7356803;32;20125;-56
2023/06/22 14:29:31;;;;;;;29.92;26.87;;;22.10;99.90;;;;;;7345085;32;20249;-56
2023/06/22 14:33:33;;;;;;;29.77;26.62;;;22.10;99.90;;;;;;7348449;32;20496;-56
2023/06/22 14:37:35;;;;;;;32.15;28.77;;;21.90;99.90;;;;;;7351874;32;20149;-56
2023/06/22 14:41:36;;;;;;;33.58;30.27;;;21.90;99.90;;;;;;7350881;32;20126;-57
2023/06/22 14:45:38;;;;;;;31.70;28.60;;;21.80;99.90;;;;;;7338148;32;20115;-56
2023/06/22 14:49:41;;;;;;;30.25;27.05;;;21.70;99.90;;;;;;7350360;32;20231;-57
2023/06/22 14:53:44;;;;;;;28.35;25.50;;;21.70;99.90;;;;;;7328707;32;20493;-56
2023/06/22 14:57:46;;;;;;;28.42;25.40;;;21.60;99.90;;;;;;7338719;32;20254;-56
2023/06/22 15:01:48;;;;;;;28.90;25.98;;;21.60;99.90;;;;;;7335357;32;20288;-55
2023/06/22 15:05:49;;;;;;;25.92;23.23;;;21.50;99.90;;;;;;7341123;32;20138;-56
2023/06/22 15:09:51;;;;;;;24.58;22.25;;;21.40;99.90;;;;;;7337627;32;20229;-56
2023/06/22 15:13:53;;;;;;;24.30;21.62;;;21.30;99.90;;;;;;7340535;32;20091;-56
2023/06/22 15:17:55;;;;;;;21.77;19.65;;;21.40;99.90;;;;;;7350485;32;20250;-56
2023/06/22 15:21:56;;;;;;;24.67;22.00;;;21.30;99.90;;;;;;7333048;32;20165;-56
2023/06/22 15:26:01;;;;;;;23.17;20.75;;;21.20;99.90;;;;;;7340822;32;20226;-56
2023/06/22 15:30:04;;;;;;;21.65;19.35;;;21.20;99.90;;;;;;7335788;32;20111;-56
2023/06/22 15:34:06;;;;;;;22.40;20.00;;;21.40;99.90;;;;;;7332153;32;20204;-57
2023/06/22 15:38:08;;;;;;;22.37;19.95;;;21.50;99.90;;;;;;7324749;32;20241;-56
2023/06/22 15:42:09;;;;;;;23.83;20.65;;;21.30;99.90;;;;;;7321853;32;20240;-57
2023/06/22 15:46:11;;;;;;;23.55;21.15;;;21.10;99.90;;;;;;7323938;32;20448;-56
2023/06/22 15:50:13;;;;;;;24.90;22.37;;;20.90;99.90;;;;;;7333818;32;21262;-57
2023/06/22 15:54:16;;;;;;;27.83;24.92;;;20.70;99.90;;;;;;7336532;32;20186;-56
2023/06/22 15:58:18;;;;;;;29.98;26.70;;;20.50;99.90;;;;;;7325051;32;20265;-56
2023/06/22 16:02:19;;;;;;;29.98;26.80;;;20.40;99.90;;;;;;7321015;32;20108;-56
2023/06/22 16:06:22;;;;;;;33.47;28.50;;;20.40;99.90;;;;;;7341686;32;20131;-56
2023/06/22 16:10:24;;;;;;;30.15;26.95;;;20.30;99.90;;;;;;7343170;32;20189;-56
2023/06/22 16:14:25;;;;;;;29.27;26.37;;;20.30;99.90;;;;;;7348015;32;20202;-56
2023/06/22 16:18:27;;;;;;;30.73;27.65;;;20.30;99.90;;;;;;7323430;32;20413;-57
2023/06/22 16:22:29;;;;;;;32.08;28.60;;;20.20;99.90;;;;;;7337722;32;20900;-56
2023/06/22 16:26:38;;;;;;;33.78;30.27;;;20.20;99.90;;;;;;7311017;32;20174;-56
2023/06/22 16:30:41;;;;;;;33.05;29.52;;;20.10;99.90;;;;;;7336146;32;20388;-56
2023/06/22 16:34:45;;;;;;;34.33;30.88;;;20.20;99.90;;;;;;7334813;32;20103;-57
2023/06/22 16:38:47;;;;;;;32.22;28.83;;;20.20;99.90;;;;;;7324220;32;20856;-57
2023/06/22 16:42:52;;;;;;;33.53;29.95;;;20.10;99.90;;;;;;7333343;32;20191;-57
2023/06/22 16:46:54;;;;;;;35.03;31.17;;;20.00;99.90;;;;;;7337877;32;20116;-57
2023/06/22 16:50:56;;;;;;;35.15;31.33;;;19.90;99.90;;;;;;7338242;32;20211;-57
2023/06/22 16:54:59;;;;;;;30.98;27.83;;;19.90;99.90;;;;;;7341659;32;20095;-56
2023/06/22 16:59:05;;;;;;;29.60;25.02;;;19.80;99.90;;;;;;7344167;32;20492;-56
2023/06/22 17:03:15;;;;;;;26.90;24.10;;;19.70;99.90;;;;;;7347540;32;20143;-56
2023/06/22 17:07:19;;;;;;;25.75;22.50;;;19.50;99.90;;;;;;7343579;32;20139;-57
2023/06/22 17:11:21;;;;;;;24.60;21.98;;;19.50;99.90;;;;;;7345755;32;20219;-56
2023/06/22 17:15:25;;;;;;;24.50;21.98;;;19.30;99.90;;;;;;7342629;32;20133;-56
2023/06/22 17:19:26;;;;;;;26.35;22.20;;;19.30;99.90;;;;;;7342807;32;20853;-56
2023/06/22 17:23:29;;;;;;;24.87;22.40;;;19.20;99.90;;;;;;7336277;32;20214;-56
2023/06/22 17:27:33;;;;;;;24.90;21.37;;;19.30;99.90;;;;;;7340123;32;20250;-56
2023/06/22 17:31:43;;;;;;;24.58;21.92;;;19.30;99.90;;;;;;7344181;32;20209;-57
2023/06/22 17:35:47;;;;;;;24.02;21.23;;;19.30;99.90;;;;;;7338659;32;20122;-56
2023/06/22 17:39:53;;;;;;;24.75;22.02;;;19.20;99.90;;;;;;7336464;32;20239;-57
2023/06/22 17:43:57;;;;;;;23.58;21.12;;;19.10;99.90;;;;;;7341175;32;20131;-57
2023/06/22 17:47:59;;;;;;;23.17;20.60;;;19.10;99.90;;;;;;7342829;32;20138;-56
2023/06/22 17:52:01;;;;;;;22.50;20.10;;;19.00;99.90;;;;;;7327458;32;20526;-56
2023/06/22 17:56:03;;;;;;;22.62;20.37;;;19.00;99.90;;;;;;7344213;32;20192;-56
2023/06/22 18:00:10;;;;;;;21.00;18.80;;;18.90;99.90;;;;;;7348295;32;20470;-57
2023/06/22 18:04:18;;;;;;;;;;;18.90;99.90;;;;;;7345940;32;20107;-57
2023/06/22 18:08:25;;;;;;;23.20;20.80;;;18.80;99.90;;;;;;7343166;32;20104;-56
2023/06/22 18:12:28;;;;;;;25.42;23.05;;;18.80;99.90;;;;;;7332937;32;20141;-56
2023/06/22 18:16:33;;;;;;;30.23;27.10;;;18.80;99.90;;;;;;7337987;32;20107;-56
2023/06/22 18:20:36;;;;;;;36.47;32.55;;;18.80;99.90;;;;;;7343614;32;20198;-56
2023/06/22 18:24:40;;;;;;;37.35;33.70;;;18.80;99.90;;;;;;7328435;32;20204;-57
2023/06/22 18:28:43;;;;;;;40.42;36.35;;;18.90;99.90;;;;;;7333365;32;20134;-56
2023/06/22 18:32:45;;;;;;;42.00;37.85;;;18.90;99.90;;;;;;7340341;32;20127;-57
2023/06/22 18:36:51;;;;;;;38.97;35.03;;;18.90;99.90;;;;;;7344828;32;20222;-56
2023/06/22 18:40:53;;;;;;;38.92;34.90;;;18.90;99.90;;;;;;7342518;32;20125;-56
2023/06/22 18:44:55;;;;;;;39.55;35.38;;;18.90;99.90;;;;;;7343331;32;20680;-57
2023/06/22 18:49:07;;;;;;;43.53;36.13;;;18.80;99.90;;;;;;7345759;32;20491;-56
2023/06/22 18:53:26;;;;;;;34.47;31.00;;;18.80;99.90;;;;;;7341101;32;20143;-58
2023/06/22 18:57:31;;;;;;;32.58;29.37;;;18.90;99.90;;;;;;7331181;32;20114;-56
2023/06/22 19:01:33;;;;;;;29.35;26.35;;;18.80;99.90;;;;;;7339194;32;20519;-57
2023/06/22 19:05:43;;;;;;;23.92;21.58;;;18.80;99.90;;;;;;7338394;32;20827;-58
2023/06/22 19:10:21;;;;;;;22.00;19.77;;;18.80;99.90;;;;;;7341187;32;20135;-57
2023/06/22 19:14:24;;;;;;;;;;;18.80;99.90;;;;;;7337788;32;20195;-58
2023/06/22 19:18:34;;;;;;;20.88;18.77;;;18.60;99.90;;;;;;7343555;32;20098;-57
2023/06/22 19:22:53;;;;;;;27.17;24.48;;;18.60;99.90;;;;;;7343229;32;20687;-56
2023/06/22 19:26:55;;;;;;;25.70;23.00;;;18.60;99.90;;;;;;7342281;32;20467;-57
2023/06/22 19:31:01;;;;;;;18.50;16.40;;;18.50;99.90;;;;;;7335357;32;20103;-57
2023/06/22 19:35:07;;;;;;;19.33;17.02;;;18.30;99.90;;;;;;7340802;32;20160;-56
2023/06/22 19:39:10;;;;;;;18.58;16.50;;;18.30;99.90;;;;;;7341095;32;20175;-57
2023/06/22 19:43:16;;;;;;;18.37;14.95;;;18.10;99.90;;;;;;7339685;32;20122;-57
2023/06/22 19:47:20;;;;;;;14.45;12.98;;;18.00;99.90;;;;;;7340159;32;20253;-58
2023/06/22 19:51:22;;;;;;;15.27;13.68;;;17.70;99.90;;;;;;7341116;32;20154;-58
2023/06/22 19:55:23;;;;;;;15.27;13.13;;;17.60;99.90;;;;;;7337382;32;20122;-57
2023/06/22 19:59:26;;;;;;;14.13;12.63;;;17.50;99.90;;;;;;7342858;32;20161;-58
2023/06/22 20:03:46;;;;;;;15.32;13.48;;;17.40;99.90;;;;;;7342158;32;20174;-56
2023/06/22 20:07:48;;;;;;;16.58;14.40;;;17.40;99.90;;;;;;7341949;32;20894;-55
2023/06/22 20:11:56;;;;;;;17.08;15.27;;;17.40;99.90;;;;;;7342575;32;20759;-55
2023/06/22 20:16:08;;;;;;;20.05;17.62;;;17.30;99.90;;;;;;7339899;32;20122;-56
2023/06/22 20:20:19;;;;;;;20.52;18.30;;;17.30;99.90;;;;;;7343582;32;20191;-56
2023/06/22 20:24:22;;;;;;;17.77;15.93;;;17.20;99.90;;;;;;7341367;32;20142;-55
2023/06/22 20:28:25;;;;;;;19.23;17.05;;;17.20;99.90;;;;;;7337580;32;20509;-56
2023/06/22 20:32:27;;;;;;;19.37;16.25;;;17.20;99.90;;;;;;7343157;32;20873;-55
2023/06/22 20:36:28;;;;;;;19.17;17.00;;;17.10;99.90;;;;;;7335036;32;20119;-55
2023/06/22 20:40:30;;;;;;;21.50;15.93;;;17.10;99.90;;;;;;7345026;32;20106;-56